sensor_id;sensor_type;location;lat;lon;timestamp;P1;durP1;ratioP1;P2;durP2;ratioP2
41685;SDS011;27370;42.764;23.432;2022-12-18T00:01:26;2.40;;;1.55;;
41685;SDS011;27370;42.764;23.432;2022-12-18T00:03:52;0.47;;;0.45;;
41685;SDS011;27370;42.764;23.432;2022-12-18T00:06:18;2.50;;;1.27;;
41685;SDS011;27370;42.764;23.432;2022-12-18T00:08:44;2.05;;;1.85;;
41685;SDS011;27370;42.764;23.432;2022-12-18T00:11:29;2.72;;;1.90;;
41685;SDS011;27370;42.764;23.432;2022-12-18T00:13:55;3.13;;;0.98;;
41685;SDS011;27370;42.764;23.432;2022-12-18T00:16:21;0.55;;;0.55;;
41685;SDS011;27370;42.764;23.432;2022-12-18T00:18:48;3.60;;;2.10;;
41685;SDS011;27370;42.764;23.432;2022-12-18T00:21:13;0.50;;;0.50;;
41685;SDS011;27370;42.764;23.432;2022-12-18T00:23:39;0.88;;;0.45;;
41685;SDS011;27370;42.764;23.432;2022-12-18T00:26:06;1.73;;;1.23;;
41685;SDS011;27370;42.764;23.432;2022-12-18T00:28:32;0.77;;;0.77;;
41685;SDS011;27370;42.764;23.432;2022-12-18T00:31:04;1.70;;;1.05;;
41685;SDS011;27370;42.764;23.432;2022-12-18T00:33:30;1.23;;;1.13;;
41685;SDS011;27370;42.764;23.432;2022-12-18T00:36:00;2.78;;;1.83;;
41685;SDS011;27370;42.764;23.432;2022-12-18T00:38:25;0.63;;;0.55;;
41685;SDS011;27370;42.764;23.432;2022-12-18T00:40:51;2.25;;;1.75;;
41685;SDS011;27370;42.764;23.432;2022-12-18T00:43:16;3.22;;;2.10;;
41685;SDS011;27370;42.764;23.432;2022-12-18T00:45:42;1.23;;;0.93;;
41685;SDS011;27370;42.764;23.432;2022-12-18T00:48:07;0.85;;;0.85;;
41685;SDS011;27370;42.764;23.432;2022-12-18T00:50:33;1.25;;;1.17;;
41685;SDS011;27370;42.764;23.432;2022-12-18T00:52:59;1.25;;;1.10;;
41685;SDS011;27370;42.764;23.432;2022-12-18T00:55:24;1.38;;;1.27;;
41685;SDS011;27370;42.764;23.432;2022-12-18T00:57:51;0.90;;;0.80;;
41685;SDS011;27370;42.764;23.432;2022-12-18T01:00:16;1.40;;;1.30;;
41685;SDS011;27370;42.764;23.432;2022-12-18T01:02:41;1.15;;;1.05;;
41685;SDS011;27370;42.764;23.432;2022-12-18T01:05:08;0.95;;;0.75;;
41685;SDS011;27370;42.764;23.432;2022-12-18T01:07:33;1.63;;;1.50;;
41685;SDS011;27370;42.764;23.432;2022-12-18T01:10:01;0.63;;;0.63;;
41685;SDS011;27370;42.764;23.432;2022-12-18T01:12:26;1.27;;;1.17;;
41685;SDS011;27370;42.764;23.432;2022-12-18T01:14:52;1.30;;;1.20;;
41685;SDS011;27370;42.764;23.432;2022-12-18T01:17:17;0.88;;;0.85;;
41685;SDS011;27370;42.764;23.432;2022-12-18T01:19:42;2.75;;;1.58;;
41685;SDS011;27370;42.764;23.432;2022-12-18T01:22:09;0.32;;;0.32;;
41685;SDS011;27370;42.764;23.432;2022-12-18T01:24:34;1.48;;;1.33;;
41685;SDS011;27370;42.764;23.432;2022-12-18T01:26:59;0.85;;;0.82;;
41685;SDS011;27370;42.764;23.432;2022-12-18T01:29:25;1.42;;;1.33;;
41685;SDS011;27370;42.764;23.432;2022-12-18T01:31:50;0.95;;;0.95;;
41685;SDS011;27370;42.764;23.432;2022-12-18T01:34:16;2.28;;;2.08;;
41685;SDS011;27370;42.764;23.432;2022-12-18T01:36:42;1.35;;;1.20;;
41685;SDS011;27370;42.764;23.432;2022-12-18T01:39:09;1.08;;;0.85;;
41685;SDS011;27370;42.764;23.432;2022-12-18T01:41:35;0.93;;;0.85;;
41685;SDS011;27370;42.764;23.432;2022-12-18T01:47:03;0.68;;;0.68;;
41685;SDS011;27370;42.764;23.432;2022-12-18T01:49:29;0.50;;;0.50;;
41685;SDS011;27370;42.764;23.432;2022-12-18T01:51:54;0.63;;;0.60;;
41685;SDS011;27370;42.764;23.432;2022-12-18T01:54:20;0.50;;;0.50;;
41685;SDS011;27370;42.764;23.432;2022-12-18T01:56:45;2.00;;;1.58;;
41685;SDS011;27370;42.764;23.432;2022-12-18T01:59:11;1.33;;;0.90;;
41685;SDS011;27370;42.764;23.432;2022-12-18T02:01:38;0.75;;;0.75;;
41685;SDS011;27370;42.764;23.432;2022-12-18T02:04:22;1.63;;;1.42;;
41685;SDS011;27370;42.764;23.432;2022-12-18T02:13:18;0.80;;;0.70;;
41685;SDS011;27370;42.764;23.432;2022-12-18T02:28:28;1.02;;;1.00;;
41685;SDS011;27370;42.764;23.432;2022-12-18T02:30:58;0.70;;;0.70;;
41685;SDS011;27370;42.764;23.432;2022-12-18T02:33:27;5.18;;;1.65;;
41685;SDS011;27370;42.764;23.432;2022-12-18T02:35:52;1.10;;;1.02;;
41685;SDS011;27370;42.764;23.432;2022-12-18T02:38:19;0.77;;;0.77;;
41685;SDS011;27370;42.764;23.432;2022-12-18T02:40:48;3.47;;;0.85;;
41685;SDS011;27370;42.764;23.432;2022-12-18T02:43:16;0.68;;;0.68;;
41685;SDS011;27370;42.764;23.432;2022-12-18T02:45:48;2.50;;;2.17;;
41685;SDS011;27370;42.764;23.432;2022-12-18T02:48:15;0.75;;;0.65;;
41685;SDS011;27370;42.764;23.432;2022-12-18T02:50:50;1.45;;;1.35;;
41685;SDS011;27370;42.764;23.432;2022-12-18T02:53:30;1.33;;;1.23;;
41685;SDS011;27370;42.764;23.432;2022-12-18T02:58:46;0.40;;;0.40;;
41685;SDS011;27370;42.764;23.432;2022-12-18T03:01:49;0.93;;;0.85;;
41685;SDS011;27370;42.764;23.432;2022-12-18T03:04:18;0.85;;;0.85;;
41685;SDS011;27370;42.764;23.432;2022-12-18T03:06:47;0.93;;;0.90;;
41685;SDS011;27370;42.764;23.432;2022-12-18T03:09:22;1.15;;;1.10;;
41685;SDS011;27370;42.764;23.432;2022-12-18T03:11:52;1.00;;;0.82;;
41685;SDS011;27370;42.764;23.432;2022-12-18T03:14:39;0.68;;;0.68;;
41685;SDS011;27370;42.764;23.432;2022-12-18T03:17:08;1.70;;;1.60;;
41685;SDS011;27370;42.764;23.432;2022-12-18T03:19:34;2.78;;;1.77;;
41685;SDS011;27370;42.764;23.432;2022-12-18T03:22:02;3.13;;;2.15;;
41685;SDS011;27370;42.764;23.432;2022-12-18T03:24:33;3.90;;;1.90;;
41685;SDS011;27370;42.764;23.432;2022-12-18T03:27:02;1.17;;;1.08;;
41685;SDS011;27370;42.764;23.432;2022-12-18T03:29:35;1.65;;;1.55;;
41685;SDS011;27370;42.764;23.432;2022-12-18T03:32:05;0.73;;;0.73;;
41685;SDS011;27370;42.764;23.432;2022-12-18T03:34:34;0.77;;;0.77;;
41685;SDS011;27370;42.764;23.432;2022-12-18T03:37:04;0.75;;;0.57;;
41685;SDS011;27370;42.764;23.432;2022-12-18T03:39:31;1.60;;;1.38;;
41685;SDS011;27370;42.764;23.432;2022-12-18T03:42:05;2.40;;;0.95;;
41685;SDS011;27370;42.764;23.432;2022-12-18T03:44:48;2.50;;;1.23;;
41685;SDS011;27370;42.764;23.432;2022-12-18T03:47:27;2.25;;;1.17;;
41685;SDS011;27370;42.764;23.432;2022-12-18T03:52:46;0.40;;;0.40;;
41685;SDS011;27370;42.764;23.432;2022-12-18T03:55:14;0.93;;;0.90;;
41685;SDS011;27370;42.764;23.432;2022-12-18T03:57:42;2.83;;;2.13;;
41685;SDS011;27370;42.764;23.432;2022-12-18T04:00:09;1.15;;;1.05;;
41685;SDS011;27370;42.764;23.432;2022-12-18T04:03:02;4.03;;;1.85;;
41685;SDS011;27370;42.764;23.432;2022-12-18T04:05:38;0.95;;;0.95;;
41685;SDS011;27370;42.764;23.432;2022-12-18T04:08:06;1.15;;;1.05;;
41685;SDS011;27370;42.764;23.432;2022-12-18T04:10:35;0.93;;;0.93;;
41685;SDS011;27370;42.764;23.432;2022-12-18T04:13:01;3.15;;;2.38;;
41685;SDS011;27370;42.764;23.432;2022-12-18T04:15:27;1.13;;;1.02;;
41685;SDS011;27370;42.764;23.432;2022-12-18T04:17:54;0.35;;;0.35;;
41685;SDS011;27370;42.764;23.432;2022-12-18T04:20:22;0.45;;;0.45;;
41685;SDS011;27370;42.764;23.432;2022-12-18T04:22:48;1.35;;;0.98;;
41685;SDS011;27370;42.764;23.432;2022-12-18T04:25:13;1.35;;;1.25;;
41685;SDS011;27370;42.764;23.432;2022-12-18T04:27:48;2.05;;;1.85;;
41685;SDS011;27370;42.764;23.432;2022-12-18T04:30:14;3.65;;;2.20;;
41685;SDS011;27370;42.764;23.432;2022-12-18T04:32:40;0.43;;;0.43;;
41685;SDS011;27370;42.764;23.432;2022-12-18T04:35:07;1.23;;;1.13;;
41685;SDS011;27370;42.764;23.432;2022-12-18T04:37:35;1.65;;;1.55;;
41685;SDS011;27370;42.764;23.432;2022-12-18T04:40:01;2.42;;;1.60;;
41685;SDS011;27370;42.764;23.432;2022-12-18T04:42:36;3.97;;;2.35;;
41685;SDS011;27370;42.764;23.432;2022-12-18T04:45:01;0.70;;;0.70;;
41685;SDS011;27370;42.764;23.432;2022-12-18T04:47:28;1.27;;;0.77;;
41685;SDS011;27370;42.764;23.432;2022-12-18T04:49:53;0.85;;;0.85;;
41685;SDS011;27370;42.764;23.432;2022-12-18T04:52:19;0.75;;;0.75;;
41685;SDS011;27370;42.764;23.432;2022-12-18T04:54:44;1.20;;;1.10;;
41685;SDS011;27370;42.764;23.432;2022-12-18T04:57:09;0.63;;;0.63;;
41685;SDS011;27370;42.764;23.432;2022-12-18T04:59:35;4.90;;;2.35;;
41685;SDS011;27370;42.764;23.432;2022-12-18T05:02:00;2.10;;;0.90;;
41685;SDS011;27370;42.764;23.432;2022-12-18T05:04:26;0.68;;;0.68;;
41685;SDS011;27370;42.764;23.432;2022-12-18T05:06:51;0.40;;;0.40;;
41685;SDS011;27370;42.764;23.432;2022-12-18T05:09:16;12.45;;;4.38;;
41685;SDS011;27370;42.764;23.432;2022-12-18T05:11:42;0.65;;;0.65;;
41685;SDS011;27370;42.764;23.432;2022-12-18T05:14:07;1.20;;;1.13;;
41685;SDS011;27370;42.764;23.432;2022-12-18T05:16:33;1.05;;;0.98;;
41685;SDS011;27370;42.764;23.432;2022-12-18T05:18:59;1.42;;;1.33;;
41685;SDS011;27370;42.764;23.432;2022-12-18T05:21:24;0.65;;;0.65;;
41685;SDS011;27370;42.764;23.432;2022-12-18T05:23:49;3.38;;;2.22;;
41685;SDS011;27370;42.764;23.432;2022-12-18T05:26:16;4.75;;;2.88;;
41685;SDS011;27370;42.764;23.432;2022-12-18T05:28:42;7.68;;;2.70;;
41685;SDS011;27370;42.764;23.432;2022-12-18T05:31:07;1.65;;;1.55;;
41685;SDS011;27370;42.764;23.432;2022-12-18T05:33:33;1.83;;;1.70;;
41685;SDS011;27370;42.764;23.432;2022-12-18T05:36:00;5.43;;;2.25;;
41685;SDS011;27370;42.764;23.432;2022-12-18T05:38:26;2.35;;;1.95;;
41685;SDS011;27370;42.764;23.432;2022-12-18T05:40:52;2.83;;;1.50;;
41685;SDS011;27370;42.764;23.432;2022-12-18T05:43:18;1.52;;;1.30;;
41685;SDS011;27370;42.764;23.432;2022-12-18T05:45:44;1.63;;;1.30;;
41685;SDS011;27370;42.764;23.432;2022-12-18T05:48:12;0.80;;;0.80;;
41685;SDS011;27370;42.764;23.432;2022-12-18T05:50:39;1.25;;;1.15;;
41685;SDS011;27370;42.764;23.432;2022-12-18T05:53:04;0.75;;;0.75;;
41685;SDS011;27370;42.764;23.432;2022-12-18T05:55:34;1.65;;;1.20;;
41685;SDS011;27370;42.764;23.432;2022-12-18T05:58:00;1.25;;;1.15;;
41685;SDS011;27370;42.764;23.432;2022-12-18T06:00:25;1.65;;;1.42;;
41685;SDS011;27370;42.764;23.432;2022-12-18T06:02:50;0.68;;;0.68;;
41685;SDS011;27370;42.764;23.432;2022-12-18T06:05:16;1.63;;;1.48;;
41685;SDS011;27370;42.764;23.432;2022-12-18T06:07:41;2.35;;;1.85;;
41685;SDS011;27370;42.764;23.432;2022-12-18T06:10:07;0.75;;;0.75;;
41685;SDS011;27370;42.764;23.432;2022-12-18T06:12:33;1.13;;;1.02;;
41685;SDS011;27370;42.764;23.432;2022-12-18T06:14:59;0.88;;;0.88;;
41685;SDS011;27370;42.764;23.432;2022-12-18T06:17:27;0.38;;;0.38;;
41685;SDS011;27370;42.764;23.432;2022-12-18T06:19:52;1.42;;;0.68;;
41685;SDS011;27370;42.764;23.432;2022-12-18T06:22:18;6.15;;;3.58;;
41685;SDS011;27370;42.764;23.432;2022-12-18T06:24:43;2.17;;;1.88;;
41685;SDS011;27370;42.764;23.432;2022-12-18T06:27:10;4.72;;;2.30;;
41685;SDS011;27370;42.764;23.432;2022-12-18T06:29:35;0.88;;;0.88;;
41685;SDS011;27370;42.764;23.432;2022-12-18T06:32:00;3.90;;;2.15;;
41685;SDS011;27370;42.764;23.432;2022-12-18T06:34:26;2.05;;;1.95;;
41685;SDS011;27370;42.764;23.432;2022-12-18T06:36:52;0.60;;;0.60;;
41685;SDS011;27370;42.764;23.432;2022-12-18T06:39:17;1.38;;;1.27;;
41685;SDS011;27370;42.764;23.432;2022-12-18T06:41:42;1.45;;;1.20;;
41685;SDS011;27370;42.764;23.432;2022-12-18T06:44:08;2.45;;;1.55;;
41685;SDS011;27370;42.764;23.432;2022-12-18T06:46:33;1.27;;;1.17;;
41685;SDS011;27370;42.764;23.432;2022-12-18T06:48:58;0.65;;;0.60;;
41685;SDS011;27370;42.764;23.432;2022-12-18T06:51:24;2.63;;;2.40;;
41685;SDS011;27370;42.764;23.432;2022-12-18T06:53:49;0.55;;;0.55;;
41685;SDS011;27370;42.764;23.432;2022-12-18T06:56:15;1.75;;;1.48;;
41685;SDS011;27370;42.764;23.432;2022-12-18T06:58:40;2.35;;;1.90;;
41685;SDS011;27370;42.764;23.432;2022-12-18T07:01:07;1.40;;;1.15;;
41685;SDS011;27370;42.764;23.432;2022-12-18T07:03:32;3.03;;;2.70;;
41685;SDS011;27370;42.764;23.432;2022-12-18T07:05:58;3.63;;;2.45;;
41685;SDS011;27370;42.764;23.432;2022-12-18T07:08:23;2.70;;;2.38;;
41685;SDS011;27370;42.764;23.432;2022-12-18T07:10:48;6.03;;;2.30;;
41685;SDS011;27370;42.764;23.432;2022-12-18T07:13:17;1.55;;;1.23;;
41685;SDS011;27370;42.764;23.432;2022-12-18T07:15:43;1.63;;;1.38;;
41685;SDS011;27370;42.764;23.432;2022-12-18T07:18:08;1.33;;;1.23;;
41685;SDS011;27370;42.764;23.432;2022-12-18T07:20:34;2.05;;;1.35;;
41685;SDS011;27370;42.764;23.432;2022-12-18T07:23:01;0.85;;;0.85;;
41685;SDS011;27370;42.764;23.432;2022-12-18T07:25:26;4.03;;;3.03;;
41685;SDS011;27370;42.764;23.432;2022-12-18T07:27:52;1.00;;;0.73;;
41685;SDS011;27370;42.764;23.432;2022-12-18T07:30:17;0.60;;;0.60;;
41685;SDS011;27370;42.764;23.432;2022-12-18T07:32:43;1.48;;;1.38;;
41685;SDS011;27370;42.764;23.432;2022-12-18T07:35:08;4.70;;;2.38;;
41685;SDS011;27370;42.764;23.432;2022-12-18T07:37:33;3.10;;;2.25;;
41685;SDS011;27370;42.764;23.432;2022-12-18T07:39:59;2.75;;;1.92;;
41685;SDS011;27370;42.764;23.432;2022-12-18T07:42:24;2.40;;;1.95;;
41685;SDS011;27370;42.764;23.432;2022-12-18T07:44:56;2.08;;;1.88;;
41685;SDS011;27370;42.764;23.432;2022-12-18T07:47:21;0.88;;;0.88;;
41685;SDS011;27370;42.764;23.432;2022-12-18T07:49:46;0.77;;;0.77;;
41685;SDS011;27370;42.764;23.432;2022-12-18T07:52:12;3.08;;;1.33;;
41685;SDS011;27370;42.764;23.432;2022-12-18T07:54:38;2.72;;;1.70;;
41685;SDS011;27370;42.764;23.432;2022-12-18T07:57:04;2.30;;;1.80;;
41685;SDS011;27370;42.764;23.432;2022-12-18T07:59:29;4.40;;;2.17;;
41685;SDS011;27370;42.764;23.432;2022-12-18T08:01:54;2.47;;;1.67;;
41685;SDS011;27370;42.764;23.432;2022-12-18T08:04:20;2.30;;;2.10;;
41685;SDS011;27370;42.764;23.432;2022-12-18T08:06:45;2.33;;;2.15;;
41685;SDS011;27370;42.764;23.432;2022-12-18T08:09:11;2.40;;;1.67;;
41685;SDS011;27370;42.764;23.432;2022-12-18T08:11:36;0.88;;;0.88;;
41685;SDS011;27370;42.764;23.432;2022-12-18T08:14:02;0.93;;;0.93;;
41685;SDS011;27370;42.764;23.432;2022-12-18T08:16:27;1.33;;;1.23;;
41685;SDS011;27370;42.764;23.432;2022-12-18T08:18:53;1.73;;;1.52;;
41685;SDS011;27370;42.764;23.432;2022-12-18T08:21:19;2.30;;;2.10;;
41685;SDS011;27370;42.764;23.432;2022-12-18T08:23:47;1.48;;;1.38;;
41685;SDS011;27370;42.764;23.432;2022-12-18T08:26:12;0.40;;;0.40;;
41685;SDS011;27370;42.764;23.432;2022-12-18T08:28:38;6.15;;;2.75;;
41685;SDS011;27370;42.764;23.432;2022-12-18T08:31:04;3.40;;;2.15;;
41685;SDS011;27370;42.764;23.432;2022-12-18T08:33:29;1.02;;;0.82;;
41685;SDS011;27370;42.764;23.432;2022-12-18T08:35:55;3.45;;;1.95;;
41685;SDS011;27370;42.764;23.432;2022-12-18T08:38:20;1.27;;;1.13;;
41685;SDS011;27370;42.764;23.432;2022-12-18T08:40:46;1.75;;;1.65;;
41685;SDS011;27370;42.764;23.432;2022-12-18T08:43:11;1.55;;;1.45;;
41685;SDS011;27370;42.764;23.432;2022-12-18T08:45:55;4.97;;;1.55;;
41685;SDS011;27370;42.764;23.432;2022-12-18T08:48:20;2.10;;;1.90;;
41685;SDS011;27370;42.764;23.432;2022-12-18T08:50:55;1.48;;;1.25;;
41685;SDS011;27370;42.764;23.432;2022-12-18T08:53:21;0.35;;;0.35;;
41685;SDS011;27370;42.764;23.432;2022-12-18T08:55:46;0.65;;;0.65;;
41685;SDS011;27370;42.764;23.432;2022-12-18T08:58:11;2.85;;;2.60;;
41685;SDS011;27370;42.764;23.432;2022-12-18T09:00:37;1.77;;;1.17;;
41685;SDS011;27370;42.764;23.432;2022-12-18T09:03:02;1.70;;;1.25;;
41685;SDS011;27370;42.764;23.432;2022-12-18T09:05:28;2.05;;;1.70;;
41685;SDS011;27370;42.764;23.432;2022-12-18T09:07:53;0.82;;;0.82;;
41685;SDS011;27370;42.764;23.432;2022-12-18T09:10:18;2.20;;;2.00;;
41685;SDS011;27370;42.764;23.432;2022-12-18T09:12:44;4.85;;;2.45;;
41685;SDS011;27370;42.764;23.432;2022-12-18T09:15:09;2.15;;;2.05;;
41685;SDS011;27370;42.764;23.432;2022-12-18T09:17:35;2.10;;;1.85;;
41685;SDS011;27370;42.764;23.432;2022-12-18T09:20:00;3.65;;;1.30;;
41685;SDS011;27370;42.764;23.432;2022-12-18T09:22:25;0.95;;;0.90;;
41685;SDS011;27370;42.764;23.432;2022-12-18T09:24:51;0.80;;;0.80;;
41685;SDS011;27370;42.764;23.432;2022-12-18T09:27:16;4.85;;;2.58;;
41685;SDS011;27370;42.764;23.432;2022-12-18T09:29:41;2.58;;;2.38;;
41685;SDS011;27370;42.764;23.432;2022-12-18T09:32:07;1.55;;;1.13;;
41685;SDS011;27370;42.764;23.432;2022-12-18T09:34:32;5.95;;;1.33;;
41685;SDS011;27370;42.764;23.432;2022-12-18T09:36:57;1.90;;;1.75;;
41685;SDS011;27370;42.764;23.432;2022-12-18T09:39:23;2.53;;;2.00;;
41685;SDS011;27370;42.764;23.432;2022-12-18T09:41:52;4.65;;;3.15;;
41685;SDS011;27370;42.764;23.432;2022-12-18T09:44:32;4.15;;;2.80;;
41685;SDS011;27370;42.764;23.432;2022-12-18T09:49:32;8.13;;;4.50;;
41685;SDS011;27370;42.764;23.432;2022-12-18T09:52:02;2.25;;;1.02;;
41685;SDS011;27370;42.764;23.432;2022-12-18T09:56:54;1.33;;;1.17;;
41685;SDS011;27370;42.764;23.432;2022-12-18T10:01:48;2.45;;;2.05;;
41685;SDS011;27370;42.764;23.432;2022-12-18T10:04:13;1.15;;;1.05;;
41685;SDS011;27370;42.764;23.432;2022-12-18T10:06:41;1.00;;;0.93;;
41685;SDS011;27370;42.764;23.432;2022-12-18T10:09:10;1.88;;;1.75;;
41685;SDS011;27370;42.764;23.432;2022-12-18T10:16:40;1.65;;;1.25;;
41685;SDS011;27370;42.764;23.432;2022-12-18T10:22:02;1.42;;;1.30;;
41685;SDS011;27370;42.764;23.432;2022-12-18T10:24:37;2.05;;;1.85;;
41685;SDS011;27370;42.764;23.432;2022-12-18T10:27:17;2.78;;;2.05;;
41685;SDS011;27370;42.764;23.432;2022-12-18T10:29:43;0.77;;;0.77;;
41685;SDS011;27370;42.764;23.432;2022-12-18T10:32:16;1.52;;;1.42;;
41685;SDS011;27370;42.764;23.432;2022-12-18T10:34:44;4.18;;;2.28;;
41685;SDS011;27370;42.764;23.432;2022-12-18T10:37:12;2.28;;;2.03;;
41685;SDS011;27370;42.764;23.432;2022-12-18T10:39:39;3.78;;;3.20;;
41685;SDS011;27370;42.764;23.432;2022-12-18T10:42:14;1.23;;;1.13;;
41685;SDS011;27370;42.764;23.432;2022-12-18T10:44:41;1.95;;;1.70;;
41685;SDS011;27370;42.764;23.432;2022-12-18T10:47:06;2.33;;;1.55;;
41685;SDS011;27370;42.764;23.432;2022-12-18T10:52:15;1.23;;;1.13;;
41685;SDS011;27370;42.764;23.432;2022-12-18T10:54:46;3.50;;;2.70;;
41685;SDS011;27370;42.764;23.432;2022-12-18T10:59:57;0.57;;;0.57;;
41685;SDS011;27370;42.764;23.432;2022-12-18T11:04:51;0.50;;;0.50;;
41685;SDS011;27370;42.764;23.432;2022-12-18T11:07:17;6.53;;;1.88;;
41685;SDS011;27370;42.764;23.432;2022-12-18T11:09:42;1.77;;;1.27;;
41685;SDS011;27370;42.764;23.432;2022-12-18T11:14:34;1.52;;;1.42;;
41685;SDS011;27370;42.764;23.432;2022-12-18T11:17:16;2.15;;;1.83;;
41685;SDS011;27370;42.764;23.432;2022-12-18T11:19:44;1.50;;;1.40;;
41685;SDS011;27370;42.764;23.432;2022-12-18T11:22:19;2.00;;;1.83;;
41685;SDS011;27370;42.764;23.432;2022-12-18T11:24:52;1.90;;;1.50;;
41685;SDS011;27370;42.764;23.432;2022-12-18T11:27:18;1.50;;;1.40;;
41685;SDS011;27370;42.764;23.432;2022-12-18T11:29:44;0.90;;;0.90;;
41685;SDS011;27370;42.764;23.432;2022-12-18T11:32:27;1.48;;;1.17;;
41685;SDS011;27370;42.764;23.432;2022-12-18T11:34:57;1.85;;;1.73;;
41685;SDS011;27370;42.764;23.432;2022-12-18T11:37:24;1.92;;;1.77;;
41685;SDS011;27370;42.764;23.432;2022-12-18T11:40:01;1.67;;;1.52;;
41685;SDS011;27370;42.764;23.432;2022-12-18T11:42:50;1.48;;;1.13;;
41685;SDS011;27370;42.764;23.432;2022-12-18T11:50:12;1.52;;;1.35;;
41685;SDS011;27370;42.764;23.432;2022-12-18T11:52:40;1.60;;;1.50;;
41685;SDS011;27370;42.764;23.432;2022-12-18T11:55:12;1.20;;;1.10;;
41685;SDS011;27370;42.764;23.432;2022-12-18T11:57:43;1.60;;;1.42;;
41685;SDS011;27370;42.764;23.432;2022-12-18T12:00:19;4.75;;;2.58;;
41685;SDS011;27370;42.764;23.432;2022-12-18T12:13:05;1.27;;;1.23;;
41685;SDS011;27370;42.764;23.432;2022-12-18T12:18:19;2.55;;;2.35;;
41685;SDS011;27370;42.764;23.432;2022-12-18T12:25:52;1.15;;;1.05;;
41685;SDS011;27370;42.764;23.432;2022-12-18T12:35:48;2.45;;;1.27;;
41685;SDS011;27370;42.764;23.432;2022-12-18T12:41:02;0.70;;;0.70;;
41685;SDS011;27370;42.764;23.432;2022-12-18T12:43:31;1.50;;;1.40;;
41685;SDS011;27370;42.764;23.432;2022-12-18T12:46:05;1.27;;;0.93;;
41685;SDS011;27370;42.764;23.432;2022-12-18T12:51:21;0.85;;;0.85;;
41685;SDS011;27370;42.764;23.432;2022-12-18T12:53:47;1.65;;;1.25;;
41685;SDS011;27370;42.764;23.432;2022-12-18T12:56:14;0.40;;;0.40;;
41685;SDS011;27370;42.764;23.432;2022-12-18T12:59:04;1.52;;;1.42;;
41685;SDS011;27370;42.764;23.432;2022-12-18T13:09:00;2.20;;;1.73;;
41685;SDS011;27370;42.764;23.432;2022-12-18T13:11:36;2.38;;;1.83;;
41685;SDS011;27370;42.764;23.432;2022-12-18T13:14:25;0.88;;;0.77;;
41685;SDS011;27370;42.764;23.432;2022-12-18T13:16:51;0.77;;;0.77;;
41685;SDS011;27370;42.764;23.432;2022-12-18T13:19:23;3.97;;;3.03;;
41685;SDS011;27370;42.764;23.432;2022-12-18T13:21:54;1.20;;;1.10;;
41685;SDS011;27370;42.764;23.432;2022-12-18T13:26:45;1.15;;;1.13;;
41685;SDS011;27370;42.764;23.432;2022-12-18T13:29:10;3.08;;;2.75;;
41685;SDS011;27370;42.764;23.432;2022-12-18T13:34:21;32.47;;;20.55;;
41685;SDS011;27370;42.764;23.432;2022-12-18T13:36:47;29.55;;;19.30;;
41685;SDS011;27370;42.764;23.432;2022-12-18T13:41:38;30.05;;;18.02;;
41685;SDS011;27370;42.764;23.432;2022-12-18T13:44:21;29.33;;;18.65;;
41685;SDS011;27370;42.764;23.432;2022-12-18T13:46:48;35.05;;;20.52;;
41685;SDS011;27370;42.764;23.432;2022-12-18T13:54:41;29.42;;;17.33;;
41685;SDS011;27370;42.764;23.432;2022-12-18T13:59:52;30.00;;;17.55;;
41685;SDS011;27370;42.764;23.432;2022-12-18T14:02:20;29.08;;;18.95;;
41685;SDS011;27370;42.764;23.432;2022-12-18T14:04:46;28.70;;;18.63;;
41685;SDS011;27370;42.764;23.432;2022-12-18T14:07:25;29.92;;;18.80;;
41685;SDS011;27370;42.764;23.432;2022-12-18T14:09:52;28.73;;;18.83;;
41685;SDS011;27370;42.764;23.432;2022-12-18T14:12:20;30.83;;;18.40;;
41685;SDS011;27370;42.764;23.432;2022-12-18T14:15:11;32.67;;;19.83;;
41685;SDS011;27370;42.764;23.432;2022-12-18T14:17:42;32.92;;;21.00;;
41685;SDS011;27370;42.764;23.432;2022-12-18T14:20:12;32.63;;;21.05;;
41685;SDS011;27370;42.764;23.432;2022-12-18T14:22:38;35.30;;;22.33;;
41685;SDS011;27370;42.764;23.432;2022-12-18T14:27:36;30.75;;;18.73;;
41685;SDS011;27370;42.764;23.432;2022-12-18T14:30:15;32.25;;;19.30;;
41685;SDS011;27370;42.764;23.432;2022-12-18T14:32:42;34.35;;;19.50;;
41685;SDS011;27370;42.764;23.432;2022-12-18T14:35:12;30.70;;;19.17;;
41685;SDS011;27370;42.764;23.432;2022-12-18T14:37:38;30.23;;;18.60;;
41685;SDS011;27370;42.764;23.432;2022-12-18T14:40:03;29.70;;;18.17;;
41685;SDS011;27370;42.764;23.432;2022-12-18T14:42:29;28.95;;;18.33;;
41685;SDS011;27370;42.764;23.432;2022-12-18T14:47:39;29.13;;;17.80;;
41685;SDS011;27370;42.764;23.432;2022-12-18T14:50:12;30.42;;;18.60;;
41685;SDS011;27370;42.764;23.432;2022-12-18T14:52:38;30.95;;;18.25;;
41685;SDS011;27370;42.764;23.432;2022-12-18T14:55:04;31.52;;;19.83;;
41685;SDS011;27370;42.764;23.432;2022-12-18T14:57:32;33.60;;;19.98;;
41685;SDS011;27370;42.764;23.432;2022-12-18T15:00:05;29.52;;;18.05;;
41685;SDS011;27370;42.764;23.432;2022-12-18T15:02:30;27.58;;;17.52;;
41685;SDS011;27370;42.764;23.432;2022-12-18T15:05:00;29.35;;;17.95;;
41685;SDS011;27370;42.764;23.432;2022-12-18T15:07:26;30.70;;;18.58;;
41685;SDS011;27370;42.764;23.432;2022-12-18T15:10:09;48.90;;;29.60;;
41685;SDS011;27370;42.764;23.432;2022-12-18T15:12:37;63.33;;;34.45;;
41685;SDS011;27370;42.764;23.432;2022-12-18T15:15:04;31.63;;;18.30;;
41685;SDS011;27370;42.764;23.432;2022-12-18T15:17:29;26.45;;;15.32;;
41685;SDS011;27370;42.764;23.432;2022-12-18T15:19:59;27.77;;;16.40;;
41685;SDS011;27370;42.764;23.432;2022-12-18T15:22:29;27.17;;;16.00;;
41685;SDS011;27370;42.764;23.432;2022-12-18T15:24:55;29.45;;;17.40;;
41685;SDS011;27370;42.764;23.432;2022-12-18T15:27:23;30.85;;;17.50;;
41685;SDS011;27370;42.764;23.432;2022-12-18T15:30:22;30.92;;;18.13;;
41685;SDS011;27370;42.764;23.432;2022-12-18T15:32:41;32.20;;;18.60;;
41685;SDS011;27370;42.764;23.432;2022-12-18T15:37:34;31.13;;;18.38;;
41685;SDS011;27370;42.764;23.432;2022-12-18T15:40:00;32.60;;;19.38;;
41685;SDS011;27370;42.764;23.432;2022-12-18T15:42:28;32.83;;;19.83;;
41685;SDS011;27370;42.764;23.432;2022-12-18T15:45:11;33.45;;;19.33;;
41685;SDS011;27370;42.764;23.432;2022-12-18T15:47:37;32.80;;;19.92;;
41685;SDS011;27370;42.764;23.432;2022-12-18T15:50:03;32.80;;;19.50;;
41685;SDS011;27370;42.764;23.432;2022-12-18T15:52:28;32.75;;;20.55;;
41685;SDS011;27370;42.764;23.432;2022-12-18T15:54:54;35.85;;;20.27;;
41685;SDS011;27370;42.764;23.432;2022-12-18T15:57:38;35.58;;;22.15;;
41685;SDS011;27370;42.764;23.432;2022-12-18T16:00:03;33.90;;;20.15;;
41685;SDS011;27370;42.764;23.432;2022-12-18T16:02:30;35.20;;;20.73;;
41685;SDS011;27370;42.764;23.432;2022-12-18T16:04:55;34.65;;;20.23;;
41685;SDS011;27370;42.764;23.432;2022-12-18T16:07:21;34.88;;;21.13;;
41685;SDS011;27370;42.764;23.432;2022-12-18T16:09:47;37.35;;;20.92;;
41685;SDS011;27370;42.764;23.432;2022-12-18T16:12:17;36.33;;;20.95;;
41685;SDS011;27370;42.764;23.432;2022-12-18T16:14:43;38.83;;;22.33;;
41685;SDS011;27370;42.764;23.432;2022-12-18T16:17:09;34.88;;;20.85;;
41685;SDS011;27370;42.764;23.432;2022-12-18T16:19:35;34.88;;;20.92;;
41685;SDS011;27370;42.764;23.432;2022-12-18T16:22:00;34.53;;;21.13;;
41685;SDS011;27370;42.764;23.432;2022-12-18T16:24:27;34.92;;;20.52;;
41685;SDS011;27370;42.764;23.432;2022-12-18T16:26:53;33.53;;;20.17;;
41685;SDS011;27370;42.764;23.432;2022-12-18T16:29:19;35.97;;;21.45;;
41685;SDS011;27370;42.764;23.432;2022-12-18T16:31:49;38.15;;;22.05;;
41685;SDS011;27370;42.764;23.432;2022-12-18T16:36:52;39.15;;;22.08;;